St-Hubert, Belgium

9:42 PM CET on February 20, 2017 (GMT +0100)
Rue de la Victoire | | Change Station

Elev 1525 ft 50.03 °N, 5.38 °E | Updated 5 minutes ago

Clear
Clear
44.6 °F
Feels Like 43 °F
N
3.7
Wind Variable Wind from WSW
Gusts 9.9 mph

Today
High -- | Low -- °F
--% Chance of Precip.
Yesterday
High -- | Low -- °F
Precip. -- in
Pressure 30.06 in
Visibility 3.7 miles
Clouds Few 200 ft
Mostly Cloudy 300 ft
Windchill 43 °F
Dew Point 44 °F
Humidity 98%
Rainfall 0.07 in
Snow Depth Not available.
7:39 AM 6:05 PM
Waning Crescent, 31% visible
METAR EBFS 202025Z 25012KT 6000 FEW002 BKN003 09/09 Q1018 YLO
Pressure 30.06 in
Visibility 3.7 miles
Clouds Few 200 ft
Mostly Cloudy 300 ft
Windchill 43 °F
Dew Point 44 °F
Humidity 98%
Rainfall 0.07 in
Snow Depth Not available.
7:39 AM 6:05 PM
Waning Crescent, 31% visible
METAR EBFS 202025Z 25012KT 6000 FEW002 BKN003 09/09 Q1018 YLO

Get Your Daily Forecast Email!

Thanks for signing up!

Be on the lookout for a verification email in your inbox.

You'll start receiving the daily forecast at 8 AM.

×

10-Day Weather Forecast

×

Almanac

Astronomy

Feb. 20, 2017 Rise Set
Actual Time
Civil Twilight
Nautical Twilight
Astronomical Twilight
Moon
Length of Visible Light
Length of Day
Tomorrow will be .
, % of the Moon is Illuminated

Today's Extremes

Country Highs Country Lows

Community

WunderPhotos

Upload Photos

1,962,540 photos uploaded!

WunderBlog® & News

Nearby

Air Quality

  Air Quality AQ Index Pollutant
Not available.

Snow Depth

Station Depth Elevation

Earthquake Activity

City Distance Mag. Time & Date
Minimum magnitude displayed is 2.5.

Coastal Water Temperatures

Place Temperature

Stations

Nearby Weather Stations

Station Location Temp. Windchill Dew Point Humidity Wind Precip. Elev Updated Type